Nearby METAR Reports

 

CYUL - Montreal/Dorval, Quebec, Canada
Distance from station: ENE 6km
Updated: 11/15/2018 04:00 EST
Partly cloudy
Partly cloudy
 Wind from WSW
Wind: WSW 4 km/h
Temperature: -10°C
Dew Point: -14°C
Humidity: 73%
Barometer: 1037.3 hPa
Clouds: Partly cloudy
Visibility: 24 km
Cloud details: Few Clouds 457 m
Partly cloudy 7315 m
2018/11/15 09:00 CYUL 150900Z 25002KT 15SM FEW015 SCT240 M10/M14 A3063 RMK SC1CS3 SC TR SLP376
CWVQ - Ste Anne De Bell, Quebec, Canada
Distance from station: WSW 10km
Updated: 11/15/2018 04:00 EST

 Wind from WSW
Wind: WSW 4 km/h
Temperature: -10°C
Dew Point: -14°C
Humidity: 73%
2018/11/15 09:00 CWVQ 150900Z AUTO 24002KT M10/M14 RMK AO1 SLP375 T10991135 50009
 
CWTA - Mc Tavish (aut), Quebec, Canada
Distance from station: ENE 18km
Updated: 11/15/2018 04:00 EST

 Wind from calm
Wind: Calm
Temperature: -9°C
Dew Point: -15°C
Humidity: 62%
2018/11/15 09:00 CWTA 150900Z AUTO 00000KT M09/M15 RMK AO1 SLP373 T10941149 50011
CYMX - Montreal/Mirabel, Quebec, Canada
Distance from station: NW 29km
Updated: 11/15/2018 04:00 EST
Clear
Clear
 Wind from W
Wind: W 7 km/h
Temperature: -14°C
Wind Chill: -19°C
Dew Point: -16°C
Humidity: 85%
Barometer: 1036.9 hPa
Clouds: Clear
Visibility: 40 km
2018/11/15 09:00 CYMX 150900Z 28004KT 25SM SKC M14/M16 A3062 RMK SLP379
 
CYHU - Saint Hubert Arp, Quebec, Canada
Distance from station: ENE 31km
Updated: 11/15/2018 04:00 EST
Clear
Clear
 Wind from calm
Wind: Calm
Temperature: -11°C
Dew Point: -14°C
Humidity: 79%
Barometer: 1037.3 hPa
Clouds: Clear
Visibility: 14 km
2018/11/15 09:00 CYHU 150900Z AUTO 00000KT 9SM CLR M11/M14 A3063 RMK SLP376
CWIT - St Clothilde (a, Quebec, Canada
Distance from station: SSE 33km
Updated: 11/15/2018 04:00 EST

 Wind from calm
Wind: Calm
Temperature: -12°C
Dew Point: -14°C
Humidity: 85%
2018/11/15 09:00 CWIT 150900Z AUTO 00000KT M12/M14 RMK AO1 2PAST HR 1006 SLP368 P0001 T11231139 50002
 
CWIZ - L'acadie, Quebec, Canada
Distance from station: ESE 41km
Updated: 11/15/2018 04:00 EST

 Wind from S
Wind: S 4 km/h
Temperature: -11°C
Dew Point: -14°C
Humidity: 79%
2018/11/15 09:00 CWIZ 150900Z AUTO 19002KT M11/M14 RMK AO1 T11141137
CWHM - Varennes, Quebec, Canada
Distance from station: NE 45km
Updated: 10/25/2016 10:00 EDT
NOT Current

 Wind from W
Wind: W 19 km/h, Gust: 28 km/h
Temperature: 4°C
Wind Chill: 0°C
Dew Point: -2°C
Humidity: 65%
2016/10/25 14:00 CWHM 251400Z AUTO 28010G15KT 04/M02 RMK AO1 PK WND 28018/1302 T00391017
 
CWEW - L'assomption, Quebec, Canada
Distance from station: NE 50km
Updated: 11/15/2018 04:00 EST

 Wind from NW
Wind: NW 6 km/h
Temperature: -15°C
Dew Point: -18°C
Humidity: 78%
2018/11/15 09:00 CWEW 150900Z AUTO 31003KT M15/M18 RMK AO1 SLP385 T11541176 50010
CWBZ - St Anicet, Quebec, Canada
Distance from station: SW 52km
Updated: 11/15/2018 04:00 EST

 Wind from SSW
Wind: SSW 6 km/h
Temperature: -11°C
Dew Point: -14°C
Humidity: 79%
2018/11/15 09:00 CWBZ 150900Z AUTO 21003KT M11/M14 RMK AO1 SLP372 T11111135 50002
 
KFSO - Highgate, Vermont, USA
Distance from station: SE 79km
Updated: 11/15/2018 04:15 EST
Clear
Clear
 Wind from calm
Wind: Calm
Temperature: -12°C
Dew Point: -13°C
Humidity: 92%
Barometer: 1037.3 hPa
Clouds: Clear
Visibility: 16 km
2018/11/15 09:15 KFSO 150915Z AUTO 00000KT 10SM CLR M12/M13 A3063 RMK AO2 T11181132
CMGB - Granby, Quebec, Canada
Distance from station: E 81km
Updated: 11/15/2018 04:15 EST

 Wind from calm
Wind: Calm
Temperature: -12°C
Dew Point: -14°C
Humidity: 85%
2018/11/15 09:15 CMGB 150915Z AUTO 00000KT M12/M14 RMK AO1 SLP373 T11161137 51009
 
CWJT - St Jovite (autob, Quebec, Canada
Distance from station: NW 88km
Updated: 11/15/2018 04:00 EST

 Wind from calm
Wind: Calm
Temperature: -18°C
Dew Point: -20°C
Humidity: 84%
2018/11/15 09:00 CWJT 150900Z AUTO 00000KT M18/M20 RMK AO1 SLP381 T11821202 50008
CWFQ - Frelighsburg, Quebec, Canada
Distance from station: ESE 90km
Updated: 11/15/2018 04:00 EST

 Wind from S
Wind: S 6 km/h
Temperature: -13°C
Dew Point: -15°C
Humidity: 85%
2018/11/15 09:00 CWFQ 150900Z AUTO 17003KT M13/M15 RMK AO1 SOG 02 0007 SLP365 T11271153
 
KPBG - Plattsburgh Afb, New York, USA
Distance from station: SSE 93km
Updated: 11/15/2018 03:53 EST
Clear
Clear
 Wind from W
Wind: W 6 km/h
Temperature: -11°C
Dew Point: -14°C
Humidity: 79%
Barometer: 1036.9 hPa
Clouds: Clear
Visibility: 16 km
2018/11/15 08:53 KPBG 150853Z AUTO 27003KT 10SM CLR M11/M14 A3062 RMK AO2 SLP375 T11111144 50003
KMSS - Massena, New York, USA
Distance from station: SW 100km
Updated: 11/15/2018 03:53 EST
Clear
Clear
 Wind from calm
Wind: Calm
Temperature: -12°C
Dew Point: -14°C
Humidity: 85%
Barometer: 1037.6 hPa
Clouds: Clear
Visibility: 16 km
2018/11/15 08:53 KMSS 150853Z AUTO 00000KT 10SM CLR M12/M14 A3064 RMK AO2 SLP384 T11171139 50002
 
CWBS - Lac St Pierre (a, Quebec, Canada
Distance from station: NE 106km
Updated: 11/15/2018 04:00 EST

 Wind from WNW
Wind: WNW 13 km/h
Temperature: -11°C
Wind Chill: -18°C
Dew Point: -13°C
Humidity: 85%
2018/11/15 09:00 CWBS 150900Z AUTO 30007KT M11/M13 RMK AO1 T11081127
KBTV - Burlington, Vermont, USA
Distance from station: SSE 121km
Updated: 11/15/2018 03:54 EST
Clear
Clear
 Wind from E
Wind: E 6 km/h
Temperature: -9°C
Dew Point: -13°C
Humidity: 73%
Barometer: 1036.6 hPa
Clouds: Clear
Visibility: 16 km
2018/11/15 08:54 KBTV 150854Z 09003KT 10SM CLR M09/M13 A3061 RMK AO2 SLP374 T10941133 50001
 
KSLK - Saranac Lake, New York, USA
Distance from station: SSW 121km
Updated: 11/15/2018 03:51 EST
Clear
Clear
 Wind from calm
Wind: Calm
Temperature: -18°C
Dew Point: -20°C
Humidity: 84%
Barometer: 1032.2 hPa
Clouds: Clear
Visibility: 16 km
2018/11/15 08:51 KSLK 150851Z AUTO 00000KT 10SM CLR M18/M20 A3048 RMK AO2 SLP361 T11781200 50006
CWNQ - Nicolet (autob), Quebec, Canada
Distance from station: NE 123km
Updated: 11/15/2018 04:00 EST

 Wind from ESE
Wind: ESE 4 km/h
Temperature: -15°C
Dew Point: -18°C
Humidity: 78%
2018/11/15 09:00 CWNQ 150900Z AUTO 11002KT M15/M18 RMK AO1 SLP367 T11471175 50005
 
KMWN - Mount Washington, New Hampshire, USA
Distance from station: SE 237km
Updated: 11/15/2018 03:59 EST
Mostly cloudy
Mostly cloudy
 Wind from NW
Wind: NW 63 km/h
Temperature: -15°C
Wind Chill: -30°C
Dew Point: -27°C
Humidity: 35%
Clouds: Mostly cloudy
Visibility: 208 km
Cloud details: Few Clouds 3658 m
Partly cloudy 5486 m
Mostly cloudy 7620 m
2018/11/15 08:59 KMWN 150859Z 32034KT 130SM FEW120 SCT180 BKN250 M15/M27 RMK PTCHY VLY FG W-N
CYVR - Vancouver Intl A, British Columbia, Canada
Distance from station: NW 3676km
Updated: 11/15/2018 04:00 EST
Overcast
Overcast
 Wind from E
Wind: E 15 km/h
Temperature: 9°C
Wind Chill: 7°C
Dew Point: 8°C
Humidity: 94%
Barometer: 1027.8 hPa
Clouds: Overcast
Visibility: 24 km
Cloud details: Few Clouds 274 m
Few Clouds 1524 m
Overcast 3962 m
2018/11/15 09:00 CYVR 150900Z 09008KT 15SM FEW009 FEW050 OVC130 09/08 A3035 RMK CF1SC1AC7 CF TR SLP279